createdAt,value
2019-01-09T00:00:45.693Z,2.20
2019-01-09T00:03:14.374Z,2.20
2019-01-09T00:05:42.862Z,2.20
2019-01-09T00:12:21.715Z,2.10
2019-01-09T00:14:50.218Z,2.10
2019-01-09T00:17:18.735Z,2.10
2019-01-09T00:19:47.384Z,2.10
2019-01-09T00:22:15.904Z,2.00
2019-01-09T00:24:48.682Z,2.00
2019-01-09T00:27:14.640Z,2.10
2019-01-09T00:29:43.134Z,1.90
2019-01-09T00:32:11.656Z,1.90
2019-01-09T00:34:40.148Z,1.80
2019-01-09T00:37:08.673Z,1.90
2019-01-09T00:39:43.811Z,1.80
2019-01-09T00:42:12.359Z,1.80
2019-01-09T00:45:34.813Z,1.70
2019-01-09T00:48:03.414Z,1.70
2019-01-09T00:50:31.910Z,1.80
2019-01-09T00:53:00.415Z,1.80
2019-01-09T00:55:29.009Z,1.80
2019-01-09T00:57:57.522Z,1.90
2019-01-09T01:00:26.038Z,1.90
2019-01-09T01:03:15.543Z,2.00
2019-01-09T01:05:56.217Z,1.90
2019-01-09T01:08:48.939Z,1.90
2019-01-09T01:11:41.070Z,2.00
2019-01-09T01:14:29.194Z,2.00
2019-01-09T01:17:17.320Z,2.00
2019-01-09T01:20:08.387Z,2.00
2019-01-09T01:23:03.878Z,2.10
2019-01-09T01:25:47.546Z,2.10
2019-01-09T01:28:28.166Z,2.10
2019-01-09T01:31:05.608Z,2.20
2019-01-09T01:33:43.184Z,2.10
2019-01-09T01:36:49.255Z,2.20
2019-01-09T01:39:23.704Z,2.20
2019-01-09T01:42:00.915Z,2.30
2019-01-09T01:44:32.611Z,2.20
2019-01-09T01:47:35.893Z,2.20
2019-01-09T01:50:16.249Z,2.30
2019-01-09T01:52:53.970Z,2.40
2019-01-09T01:55:34.418Z,2.40
2019-01-09T01:58:17.975Z,2.40
2019-01-09T02:01:01.566Z,2.40
2019-01-09T02:03:41.934Z,2.40
2019-01-09T02:06:31.563Z,2.40
2019-01-09T02:09:12.118Z,2.40
2019-01-09T02:11:46.602Z,2.40
2019-01-09T02:14:33.208Z,2.40
2019-01-09T02:17:10.547Z,2.40
2019-01-09T02:19:45.113Z,2.30
2019-01-09T02:22:19.559Z,2.40
2019-01-09T02:24:54.139Z,2.40
2019-01-09T02:27:37.678Z,2.40
2019-01-09T02:30:42.368Z,2.50
2019-01-09T02:33:10.955Z,2.50
2019-01-09T02:35:39.446Z,2.50
2019-01-09T02:38:08.030Z,2.50
2019-01-09T02:40:36.534Z,2.50
2019-01-09T02:43:05.038Z,2.50
2019-01-09T02:45:33.708Z,2.50
2019-01-09T02:48:02.250Z,2.50
2019-01-09T02:50:30.820Z,2.60
2019-01-09T02:52:59.410Z,2.50
2019-01-09T02:55:27.885Z,2.50
2019-01-09T02:57:57.269Z,2.60
2019-01-09T03:00:25.874Z,2.60
2019-01-09T03:02:54.505Z,2.60
2019-01-09T03:05:23.066Z,2.60
2019-01-09T03:07:51.583Z,3.50
2019-01-09T03:10:20.125Z,2.60
2019-01-09T03:12:48.620Z,2.60
2019-01-09T03:15:17.181Z,2.60
2019-01-09T03:17:45.704Z,2.60
2019-01-09T03:20:14.226Z,2.70
2019-01-09T03:22:42.723Z,2.60
2019-01-09T03:25:11.244Z,2.60
2019-01-09T03:27:39.800Z,2.60
2019-01-09T03:30:08.303Z,2.60
2019-01-09T03:32:36.894Z,2.60
2019-01-09T03:35:05.468Z,2.60
2019-01-09T03:37:34.090Z,2.60
2019-01-09T03:40:02.623Z,2.60
2019-01-09T03:42:31.248Z,2.70
2019-01-09T03:44:59.767Z,2.70
2019-01-09T03:47:28.286Z,2.70
2019-01-09T03:49:56.845Z,2.70
2019-01-09T03:52:25.338Z,2.70
2019-01-09T03:54:53.919Z,2.60
2019-01-09T03:57:22.464Z,2.50
2019-01-09T03:59:50.971Z,2.40
2019-01-09T04:02:19.595Z,2.40
2019-01-09T04:04:48.177Z,2.40
2019-01-09T04:07:16.677Z,2.40
2019-01-09T04:09:45.210Z,2.30
2019-01-09T04:12:13.687Z,2.30
2019-01-09T04:14:42.190Z,2.30
2019-01-09T04:17:10.736Z,2.30
2019-01-09T04:19:39.229Z,2.30
2019-01-09T04:22:07.882Z,2.30
2019-01-09T04:24:36.379Z,2.40
2019-01-09T04:27:04.873Z,2.30
2019-01-09T04:29:33.381Z,2.30
2019-01-09T04:32:02.012Z,2.30
2019-01-09T04:34:30.545Z,2.30
2019-01-09T04:36:59.013Z,2.40
2019-01-09T04:39:27.592Z,2.30
2019-01-09T04:41:56.091Z,2.30
2019-01-09T04:44:24.778Z,0.60
2019-01-09T04:46:53.359Z,2.20
2019-01-09T04:49:21.878Z,2.20
2019-01-09T04:51:50.363Z,2.10
2019-01-09T04:54:18.998Z,2.10
2019-01-09T04:56:47.515Z,2.00
2019-01-09T04:59:16.018Z,2.00
2019-01-09T05:01:44.543Z,2.00
2019-01-09T05:04:13.093Z,2.00
2019-01-09T05:06:41.718Z,2.00
2019-01-09T05:09:10.205Z,2.00
2019-01-09T05:11:38.779Z,2.00
2019-01-09T05:14:07.260Z,2.00
2019-01-09T05:16:36.133Z,2.00
2019-01-09T05:19:04.612Z,2.00
2019-01-09T05:21:33.097Z,2.00
2019-01-09T05:24:01.618Z,2.00
2019-01-09T05:26:30.119Z,2.10
2019-01-09T05:28:58.630Z,2.00
2019-01-09T05:31:27.215Z,2.00
2019-01-09T05:33:55.889Z,2.00
2019-01-09T05:36:24.490Z,1.90
2019-01-09T05:38:52.964Z,1.90
2019-01-09T05:41:21.512Z,1.90
2019-01-09T05:43:50.010Z,1.90
2019-01-09T05:46:18.537Z,2.00
2019-01-09T05:48:47.037Z,2.00
2019-01-09T05:51:15.593Z,2.00
2019-01-09T05:53:44.149Z,2.00
2019-01-09T05:56:12.648Z,2.00
2019-01-09T05:58:41.173Z,2.10
2019-01-09T06:01:09.673Z,2.10
2019-01-09T06:03:38.173Z,2.10
2019-01-09T06:06:06.694Z,2.10
2019-01-09T06:08:35.771Z,2.00
2019-01-09T06:11:04.394Z,2.10
2019-01-09T06:13:32.975Z,2.10
2019-01-09T06:16:01.495Z,2.00
2019-01-09T06:18:30.154Z,2.00
2019-01-09T06:20:58.637Z,2.10
2019-01-09T06:23:27.147Z,2.00
2019-01-09T06:25:55.675Z,2.00
2019-01-09T06:28:24.190Z,2.00
2019-01-09T06:30:52.717Z,2.10
2019-01-09T06:33:21.244Z,2.00
2019-01-09T06:35:49.838Z,2.10
2019-01-09T06:38:18.524Z,2.10
2019-01-09T06:40:47.017Z,2.10
2019-01-09T06:43:15.639Z,2.10
2019-01-09T06:45:44.189Z,2.10
2019-01-09T06:48:12.692Z,2.10
2019-01-09T06:50:41.229Z,2.10
2019-01-09T06:53:09.688Z,2.10
2019-01-09T06:55:38.267Z,2.10
2019-01-09T06:58:06.878Z,2.10
2019-01-09T07:00:35.389Z,2.10
2019-01-09T07:03:03.959Z,2.10
2019-01-09T07:05:32.554Z,2.10
2019-01-09T07:08:01.129Z,2.10
2019-01-09T07:10:29.640Z,2.10
2019-01-09T07:12:58.164Z,2.00
2019-01-09T07:15:26.638Z,2.00
2019-01-09T07:17:55.343Z,1.90
2019-01-09T07:20:24.003Z,2.00
2019-01-09T07:22:52.493Z,2.00
2019-01-09T07:25:20.991Z,2.00
2019-01-09T07:27:49.477Z,2.00
2019-01-09T07:30:18.086Z,2.00
2019-01-09T07:32:46.567Z,2.00
2019-01-09T07:35:15.109Z,2.00
2019-01-09T07:37:45.239Z,1.90
2019-01-09T07:40:14.118Z,1.90
2019-01-09T07:42:42.632Z,2.00
2019-01-09T07:45:11.110Z,2.00
2019-01-09T07:47:39.735Z,2.00
2019-01-09T07:50:08.964Z,2.00
2019-01-09T07:52:37.453Z,2.10
2019-01-09T07:55:06.076Z,2.10
2019-01-09T07:57:34.629Z,2.10
2019-01-09T08:00:03.373Z,2.10
2019-01-09T08:02:31.963Z,2.20
2019-01-09T08:05:00.457Z,2.20
2019-01-09T08:07:28.965Z,2.20
2019-01-09T08:09:57.503Z,2.10
2019-01-09T08:12:26.088Z,2.20
2019-01-09T08:14:54.578Z,2.20
2019-01-09T08:17:23.100Z,2.20
2019-01-09T08:19:51.650Z,2.10
2019-01-09T08:22:20.395Z,2.30
2019-01-09T08:24:48.918Z,2.30
2019-01-09T08:27:17.484Z,2.20
2019-01-09T08:29:46.004Z,2.20
2019-01-09T08:32:14.481Z,2.20
2019-01-09T08:34:43.247Z,2.40
2019-01-09T08:37:11.872Z,2.30
2019-01-09T08:39:40.373Z,2.30
2019-01-09T08:42:08.879Z,2.40
2019-01-09T08:44:37.368Z,5.50
2019-01-09T08:47:05.878Z,2.30
2019-01-09T08:49:34.481Z,2.40
2019-01-09T08:52:03.020Z,2.40
2019-01-09T08:54:31.522Z,2.40
2019-01-09T08:57:00.095Z,2.40
2019-01-09T08:59:28.598Z,2.40
2019-01-09T09:01:57.233Z,2.40
2019-01-09T09:04:25.993Z,2.50
2019-01-09T09:06:54.478Z,2.40
2019-01-09T09:09:23.012Z,2.30
2019-01-09T09:11:51.554Z,2.40
2019-01-09T09:14:20.158Z,2.30
2019-01-09T09:16:48.687Z,2.40
2019-01-09T09:19:17.225Z,2.40
2019-01-09T09:21:45.736Z,2.30
2019-01-09T09:24:14.265Z,2.40
2019-01-09T09:26:42.778Z,2.40
2019-01-09T09:29:11.398Z,2.40
2019-01-09T09:31:39.933Z,2.50
2019-01-09T09:34:08.417Z,2.70
2019-01-09T09:36:36.990Z,2.70
2019-01-09T09:39:08.065Z,2.70
2019-01-09T09:41:36.602Z,2.70
2019-01-09T09:44:05.196Z,2.70
2019-01-09T09:46:33.786Z,2.60
2019-01-09T09:49:02.338Z,2.70
2019-01-09T09:51:30.853Z,2.70
2019-01-09T09:53:59.337Z,2.80
2019-01-09T09:56:27.920Z,2.90
2019-01-09T09:58:56.509Z,2.90
2019-01-09T10:01:25.019Z,3.00
2019-01-09T10:03:53.579Z,2.90
2019-01-09T10:06:22.189Z,2.90
2019-01-09T10:08:50.695Z,3.10
2019-01-09T10:11:19.273Z,3.20
2019-01-09T10:13:47.878Z,3.30
2019-01-09T10:16:16.414Z,3.40
2019-01-09T10:18:44.966Z,3.40
2019-01-09T10:21:13.626Z,3.40
2019-01-09T10:23:42.194Z,3.40
2019-01-09T10:26:10.768Z,3.40
2019-01-09T10:28:39.301Z,3.40
2019-01-09T10:31:07.888Z,3.50
2019-01-09T10:33:36.468Z,3.40
2019-01-09T10:36:04.989Z,3.40
2019-01-09T10:38:37.998Z,3.40
2019-01-09T10:41:03.680Z,3.40
2019-01-09T10:43:32.369Z,3.40
2019-01-09T10:46:00.968Z,3.60
2019-01-09T10:48:29.453Z,3.50
2019-01-09T10:50:57.999Z,3.60
2019-01-09T10:53:26.505Z,3.60
2019-01-09T10:55:55.044Z,3.50
2019-01-09T10:58:23.565Z,3.60
2019-01-09T11:00:52.147Z,3.60
2019-01-09T11:03:20.774Z,3.50
2019-01-09T11:05:49.324Z,3.40
2019-01-09T11:08:17.857Z,3.30
2019-01-09T11:10:46.344Z,3.30
2019-01-09T11:13:15.284Z,3.30
2019-01-09T11:15:43.863Z,3.30
2019-01-09T11:18:12.498Z,3.30
2019-01-09T11:20:40.997Z,3.20
2019-01-09T11:23:09.528Z,3.20
2019-01-09T11:25:38.085Z,3.20
2019-01-09T11:28:06.658Z,3.40
2019-01-09T11:30:35.154Z,3.40
2019-01-09T11:33:03.709Z,3.40
2019-01-09T11:35:32.183Z,3.40
2019-01-09T11:38:00.674Z,3.30
2019-01-09T11:40:29.294Z,3.30
2019-01-09T11:42:57.919Z,3.20
2019-01-09T11:45:26.670Z,3.20
2019-01-09T11:47:55.165Z,3.10
2019-01-09T11:50:23.783Z,3.10
2019-01-09T11:52:52.298Z,3.10
2019-01-09T11:55:20.785Z,3.10
2019-01-09T11:57:49.318Z,3.10
2019-01-09T12:00:23.534Z,3.20
2019-01-09T12:02:52.037Z,3.20
2019-01-09T12:05:20.549Z,3.10
2019-01-09T12:07:49.128Z,3.00
2019-01-09T12:10:19.917Z,2.90
2019-01-09T12:12:48.399Z,3.00
2019-01-09T12:15:17.610Z,2.90
2019-01-09T12:17:46.176Z,2.90
2019-01-09T12:20:16.498Z,2.90
2019-01-09T12:22:44.997Z,3.00
2019-01-09T12:25:13.532Z,3.10
2019-01-09T12:27:42.025Z,3.20
2019-01-09T12:30:13.876Z,3.30
2019-01-09T12:32:42.484Z,3.30
2019-01-09T12:35:10.985Z,3.30
2019-01-09T12:37:39.507Z,3.30
2019-01-09T12:40:08.274Z,3.30
2019-01-09T12:42:36.838Z,3.30
2019-01-09T12:45:11.297Z,3.30
2019-01-09T12:47:39.843Z,3.40
2019-01-09T12:50:11.958Z,3.40
2019-01-09T12:52:40.548Z,3.30
2019-01-09T12:55:09.053Z,3.20
2019-01-09T12:57:38.814Z,3.10
2019-01-09T13:00:16.921Z,3.00
2019-01-09T13:02:45.435Z,2.90
2019-01-09T13:05:13.912Z,2.80
2019-01-09T13:07:42.450Z,2.80
2019-01-09T13:10:10.932Z,2.70
2019-01-09T13:12:39.449Z,2.80
2019-01-09T13:15:11.146Z,2.70
2019-01-09T13:17:39.673Z,2.60
2019-01-09T13:20:13.012Z,2.70
2019-01-09T13:22:41.520Z,2.80
2019-01-09T13:25:11.077Z,2.80
2019-01-09T13:27:39.588Z,2.70
2019-01-09T13:30:14.198Z,2.60
2019-01-09T13:32:42.709Z,2.60
2019-01-09T13:35:11.434Z,2.60
2019-01-09T13:37:39.925Z,2.70
2019-01-09T13:40:11.567Z,2.60
2019-01-09T13:42:40.045Z,2.60
2019-01-09T13:45:10.795Z,2.60
2019-01-09T13:47:39.294Z,2.50
2019-01-09T13:50:13.109Z,2.50
2019-01-09T13:52:41.607Z,2.50
2019-01-09T13:55:11.889Z,2.60
2019-01-09T13:57:40.431Z,2.50
2019-01-09T14:00:14.535Z,2.50
2019-01-09T14:02:43.032Z,2.50
2019-01-09T14:05:11.523Z,2.40
2019-01-09T14:07:40.193Z,2.40
2019-01-09T14:10:17.183Z,2.40
2019-01-09T14:12:45.714Z,2.40
2019-01-09T14:15:16.450Z,2.40
2019-01-09T14:17:44.978Z,2.40
2019-01-09T14:20:13.678Z,2.40
2019-01-09T14:22:42.394Z,2.40
2019-01-09T14:25:12.514Z,2.40
2019-01-09T14:27:41.057Z,2.40
2019-01-09T14:30:18.087Z,2.30
2019-01-09T14:32:46.589Z,2.30
2019-01-09T14:35:15.182Z,2.30
2019-01-09T14:37:43.795Z,2.30
2019-01-09T14:40:15.538Z,2.30
2019-01-09T14:42:44.050Z,2.30
2019-01-09T14:45:13.775Z,2.30
2019-01-09T14:47:42.384Z,2.30
2019-01-09T14:50:22.438Z,2.30
2019-01-09T14:52:50.961Z,2.30
2019-01-09T14:55:19.482Z,2.20
2019-01-09T14:57:48.043Z,2.30
2019-01-09T15:00:18.639Z,2.20
2019-01-09T15:02:47.132Z,2.20
2019-01-09T15:05:15.653Z,2.20
2019-01-09T15:07:44.205Z,2.30
2019-01-09T15:10:18.214Z,2.30
2019-01-09T15:12:46.732Z,2.20
2019-01-09T15:15:16.617Z,2.20
2019-01-09T15:17:45.113Z,2.20
2019-01-09T15:20:16.035Z,2.20
2019-01-09T15:22:44.696Z,2.20
2019-01-09T15:25:14.009Z,2.10
2019-01-09T15:27:42.579Z,2.10
2019-01-09T15:30:19.420Z,2.00
2019-01-09T15:32:47.937Z,2.10
2019-01-09T15:35:16.428Z,2.10
2019-01-09T15:37:44.995Z,2.00
2019-01-09T15:40:18.965Z,2.00
2019-01-09T15:42:47.690Z,1.90
2019-01-09T15:45:16.235Z,1.90
2019-01-09T15:47:44.735Z,1.90
2019-01-09T15:50:18.904Z,1.90
2019-01-09T15:52:52.955Z,1.90
2019-01-09T15:55:17.930Z,1.90
2019-01-09T15:57:47.779Z,1.80
2019-01-09T16:00:19.140Z,1.90
2019-01-09T16:02:51.644Z,1.80
2019-01-09T16:05:20.230Z,2.30
2019-01-09T16:07:48.870Z,1.80
2019-01-09T16:10:19.879Z,1.80
2019-01-09T16:12:48.389Z,1.80
2019-01-09T16:15:17.701Z,1.80
2019-01-09T16:17:46.259Z,1.70
2019-01-09T16:20:19.510Z,1.80
2019-01-09T16:22:48.030Z,1.70
2019-01-09T16:25:16.600Z,1.80
2019-01-09T16:27:45.153Z,1.80
2019-01-09T16:30:23.068Z,1.80
2019-01-09T16:32:51.623Z,1.70
2019-01-09T16:35:20.718Z,1.80
2019-01-09T16:37:49.366Z,1.90
2019-01-09T16:40:23.319Z,1.80
2019-01-09T16:42:48.108Z,1.70
2019-01-09T16:45:16.766Z,1.70
2019-01-09T16:47:45.327Z,1.70
2019-01-09T16:50:19.916Z,1.70
2019-01-09T16:52:48.433Z,1.60
2019-01-09T16:55:17.048Z,1.70
2019-01-09T16:57:45.653Z,1.70
2019-01-09T17:00:23.231Z,1.70
2019-01-09T17:02:51.829Z,1.70
2019-01-09T17:05:20.327Z,1.80
2019-01-09T17:07:49.408Z,1.70
2019-01-09T17:10:18.050Z,1.70
2019-01-09T17:12:46.580Z,1.60
2019-01-09T17:15:18.566Z,1.60
2019-01-09T17:17:47.178Z,1.60
2019-01-09T17:20:18.835Z,1.50
2019-01-09T17:22:47.458Z,1.60
2019-01-09T17:25:16.064Z,1.60
2019-01-09T17:27:44.688Z,1.60
2019-01-09T17:30:24.968Z,1.60
2019-01-09T17:32:53.509Z,1.60
2019-01-09T17:35:21.999Z,1.50
2019-01-09T17:37:50.648Z,1.60
2019-01-09T17:40:20.854Z,1.60
2019-01-09T17:42:49.744Z,1.70
2019-01-09T17:45:18.358Z,1.60
2019-01-09T17:47:46.959Z,1.70
2019-01-09T17:50:18.662Z,1.70
2019-01-09T17:52:47.219Z,1.60
2019-01-09T17:55:15.752Z,1.70
2019-01-09T17:57:44.345Z,1.60
2019-01-09T18:00:18.671Z,1.60
2019-01-09T18:02:47.263Z,1.60
2019-01-09T18:05:16.181Z,1.70
2019-01-09T18:07:44.734Z,1.70
2019-01-09T18:10:16.398Z,1.60
2019-01-09T18:12:45.169Z,1.60
2019-01-09T18:15:15.504Z,1.60
2019-01-09T18:17:44.173Z,1.60
2019-01-09T18:20:15.037Z,1.70
2019-01-09T18:22:43.592Z,1.60
2019-01-09T18:25:14.481Z,1.80
2019-01-09T18:27:43.309Z,1.70
2019-01-09T18:30:18.034Z,1.70
2019-01-09T18:32:49.135Z,1.60
2019-01-09T18:35:23.984Z,1.60
2019-01-09T18:37:56.010Z,1.70
2019-01-09T18:40:45.508Z,1.70
2019-01-09T18:43:29.015Z,1.60
2019-01-09T18:46:17.244Z,1.60
2019-01-09T18:49:18.975Z,1.60
2019-01-09T18:52:25.238Z,1.60
2019-01-09T18:54:54.001Z,1.60
2019-01-09T18:57:22.562Z,1.60
2019-01-09T18:59:51.146Z,1.60
2019-01-09T19:02:19.752Z,1.50
2019-01-09T19:04:48.728Z,1.60
2019-01-09T19:07:17.312Z,1.60
2019-01-09T19:09:45.795Z,1.50
2019-01-09T19:12:14.366Z,1.50
2019-01-09T19:14:42.887Z,1.50
2019-01-09T19:17:11.801Z,1.60
2019-01-09T19:19:40.350Z,-0.10
2019-01-09T19:22:08.966Z,1.60
2019-01-09T19:24:37.566Z,1.50
2019-01-09T19:27:06.125Z,1.50
2019-01-09T19:29:34.905Z,1.50
2019-01-09T19:32:04.531Z,1.60
2019-01-09T19:34:33.129Z,1.50
2019-01-09T19:37:01.809Z,1.50
2019-01-09T19:39:30.327Z,1.50
2019-01-09T19:41:58.854Z,1.60
2019-01-09T19:44:27.404Z,1.50
2019-01-09T19:46:55.901Z,1.50
2019-01-09T19:49:24.436Z,1.60
2019-01-09T19:51:53.104Z,1.50
2019-01-09T19:54:21.629Z,1.60
2019-01-09T19:56:50.145Z,1.60
2019-01-09T19:59:18.664Z,1.50
2019-01-09T20:01:47.326Z,1.50
2019-01-09T20:04:15.824Z,1.50
2019-01-09T20:06:44.391Z,1.50
2019-01-09T20:09:13.045Z,1.50
2019-01-09T20:11:41.581Z,1.50
2019-01-09T20:14:10.194Z,1.50
2019-01-09T20:16:38.700Z,1.50
2019-01-09T20:19:07.256Z,1.40
2019-01-09T20:21:35.842Z,1.40
2019-01-09T20:24:04.386Z,1.40
2019-01-09T20:26:32.907Z,1.40
2019-01-09T20:29:01.574Z,1.40
2019-01-09T20:31:30.094Z,1.40
2019-01-09T20:34:01.736Z,1.30
2019-01-09T20:36:30.388Z,1.30
2019-01-09T20:38:58.943Z,1.30
2019-01-09T20:41:35.129Z,1.20
2019-01-09T20:43:57.790Z,1.30
2019-01-09T20:46:26.455Z,1.30
2019-01-09T20:48:55.049Z,1.30
2019-01-09T20:51:23.598Z,1.20
2019-01-09T20:53:52.146Z,1.20
2019-01-09T20:56:20.670Z,1.10
2019-01-09T20:58:49.241Z,1.10
2019-01-09T21:01:17.906Z,1.00
2019-01-09T21:03:46.500Z,1.00
2019-01-09T21:06:15.123Z,1.00
2019-01-09T21:08:43.640Z,1.00
2019-01-09T21:11:12.341Z,1.00
2019-01-09T21:13:40.913Z,1.00
2019-01-09T21:16:09.495Z,0.90
2019-01-09T21:18:38.129Z,1.00
2019-01-09T21:21:06.619Z,1.00
2019-01-09T21:23:35.106Z,1.00
2019-01-09T21:26:03.636Z,4.20
2019-01-09T21:28:32.145Z,1.00
2019-01-09T21:31:00.689Z,1.00
2019-01-09T21:33:29.189Z,1.10
2019-01-09T21:35:57.800Z,1.00
2019-01-09T21:38:26.304Z,1.10
2019-01-09T21:40:54.839Z,1.10
2019-01-09T21:43:23.345Z,1.10
2019-01-09T21:45:51.912Z,1.10
2019-01-09T21:48:20.419Z,1.10
2019-01-09T21:50:48.939Z,1.10
2019-01-09T21:53:17.545Z,1.20
2019-01-09T21:55:46.160Z,1.20
2019-01-09T21:58:14.749Z,1.30
2019-01-09T22:00:43.351Z,1.20
2019-01-09T22:03:12.007Z,1.20
2019-01-09T22:05:40.620Z,1.20
2019-01-09T22:08:09.124Z,1.20
2019-01-09T22:10:37.686Z,1.20
2019-01-09T22:13:06.389Z,1.20
2019-01-09T22:15:34.869Z,1.10
2019-01-09T22:18:03.373Z,1.10
2019-01-09T22:20:32.048Z,1.10
2019-01-09T22:23:00.649Z,1.10
2019-01-09T22:25:29.208Z,1.10
2019-01-09T22:27:57.757Z,1.20
2019-01-09T22:30:27.370Z,1.20
2019-01-09T22:32:55.871Z,1.20
2019-01-09T22:35:24.445Z,1.20
2019-01-09T22:37:52.967Z,1.20
2019-01-09T22:40:23.049Z,1.20
2019-01-09T22:42:51.647Z,1.20
2019-01-09T22:45:20.141Z,1.20
2019-01-09T22:47:48.662Z,1.20
2019-01-09T22:50:19.056Z,1.20
2019-01-09T22:52:47.580Z,1.20
2019-01-09T22:55:16.233Z,1.20
2019-01-09T22:57:44.742Z,1.30
2019-01-09T23:00:29.564Z,1.30
2019-01-09T23:02:58.196Z,1.20
2019-01-09T23:05:26.690Z,1.30
2019-01-09T23:07:55.206Z,1.30
2019-01-09T23:10:23.757Z,1.20
2019-01-09T23:12:52.254Z,1.20
2019-01-09T23:15:20.846Z,1.20
2019-01-09T23:17:49.422Z,1.20
2019-01-09T23:20:17.941Z,1.20
2019-01-09T23:22:46.523Z,1.20
2019-01-09T23:25:15.184Z,1.20
2019-01-09T23:27:43.721Z,1.20
2019-01-09T23:30:12.819Z,1.20
2019-01-09T23:32:41.382Z,1.20
2019-01-09T23:35:11.486Z,1.30
2019-01-09T23:37:40.032Z,1.20
2019-01-09T23:40:11.379Z,1.20
2019-01-09T23:42:39.870Z,1.20
2019-01-09T23:45:10.486Z,1.20
2019-01-09T23:47:38.990Z,1.20
2019-01-09T23:50:08.525Z,1.20
2019-01-09T23:52:37.089Z,1.20
2019-01-09T23:55:10.241Z,1.10
2019-01-09T23:57:38.740Z,1.10
